createdAt,value
2023-01-29T00:07:58.018Z,1.30
2023-01-29T00:10:27.518Z,1.30
2023-01-29T00:43:03.840Z,1.20
2023-01-29T01:11:04.349Z,0.80
2023-01-29T01:13:36.117Z,1.10
2023-01-29T01:26:11.015Z,1.00
2023-01-29T01:45:04.609Z,0.80
2023-01-29T01:47:50.644Z,0.80
2023-01-29T01:50:37.149Z,0.80
2023-01-29T01:53:12.091Z,0.80
2023-01-29T01:55:47.080Z,0.80
2023-01-29T01:58:24.571Z,0.80
2023-01-29T02:03:42.110Z,0.80
2023-01-29T02:06:29.039Z,0.70
2023-01-29T02:20:13.872Z,0.60
2023-01-29T02:23:03.735Z,0.60
2023-01-29T02:26:12.398Z,0.70
2023-01-29T02:29:27.342Z,0.60
2023-01-29T02:32:15.598Z,0.70
2023-01-29T02:35:25.466Z,0.70
2023-01-29T02:40:33.561Z,0.40
2023-01-29T02:46:17.546Z,0.70
2023-01-29T02:48:58.472Z,0.60
2023-01-29T02:51:39.992Z,0.60
2023-01-29T02:54:18.153Z,0.60
2023-01-29T02:57:01.694Z,0.60
2023-01-29T02:59:47.610Z,0.60
2023-01-29T03:02:23.483Z,0.60
2023-01-29T03:05:01.142Z,0.60
2023-01-29T03:07:44.751Z,0.70
2023-01-29T03:10:26.360Z,0.70
2023-01-29T03:13:17.258Z,0.60
2023-01-29T03:15:52.227Z,0.60
2023-01-29T03:18:27.903Z,0.60
2023-01-29T03:21:26.166Z,0.60
2023-01-29T03:24:13.926Z,0.50
2023-01-29T03:29:50.343Z,0.30
2023-01-29T03:32:22.708Z,0.40
2023-01-29T03:34:58.560Z,0.40
2023-01-29T03:37:45.702Z,0.50
2023-01-29T03:40:15.433Z,0.40
2023-01-29T03:43:23.537Z,0.20
2023-01-29T03:49:02.758Z,-1.00
2023-01-29T03:52:21.678Z,0.30
2023-01-29T03:55:17.131Z,0.10
2023-01-29T03:58:33.974Z,0.20
2023-01-29T04:01:12.877Z,0.30
2023-01-29T04:04:25.294Z,0.40
2023-01-29T04:06:58.474Z,0.30
2023-01-29T04:09:52.135Z,0.20
2023-01-29T04:12:32.208Z,0.30
2023-01-29T04:15:03.173Z,0.40
2023-01-29T04:17:41.328Z,0.40
2023-01-29T04:20:11.492Z,0.40
2023-01-29T04:22:43.385Z,0.40
2023-01-29T04:25:19.496Z,0.40
2023-01-29T04:28:04.947Z,0.40
2023-01-29T04:30:41.831Z,0.30
2023-01-29T04:34:00.648Z,0.30
2023-01-29T04:41:50.140Z,0.50
2023-01-29T04:44:42.775Z,0.40
2023-01-29T04:47:40.476Z,0.40
2023-01-29T04:50:30.464Z,0.40
2023-01-29T04:53:26.700Z,0.30
2023-01-29T04:56:06.206Z,0.30
2023-01-29T04:58:44.790Z,0.50
2023-01-29T05:01:17.989Z,0.40
2023-01-29T05:03:51.818Z,0.40
2023-01-29T05:08:51.314Z,0.50
2023-01-29T05:11:23.144Z,0.40
2023-01-29T05:16:45.544Z,0.40
2023-01-29T05:19:17.033Z,0.40
2023-01-29T05:21:49.762Z,0.40
2023-01-29T05:24:22.592Z,0.50
2023-01-29T05:27:10.930Z,0.50
2023-01-29T05:42:04.087Z,0.50
2023-01-29T05:59:25.471Z,0.50
2023-01-29T06:29:09.192Z,0.70
2023-01-29T06:34:11.335Z,0.80
2023-01-29T07:38:51.826Z,1.30
2023-01-29T08:16:05.494Z,1.20
2023-01-29T08:36:09.185Z,1.50
2023-01-29T08:46:06.946Z,1.50
2023-01-29T09:01:11.890Z,1.50
2023-01-29T09:06:12.612Z,1.60
2023-01-29T09:08:41.870Z,1.60
2023-01-29T09:16:08.352Z,1.90
2023-01-29T09:21:05.647Z,2.20
2023-01-29T09:31:05.253Z,1.80
2023-01-29T09:36:05.477Z,1.90
2023-01-29T09:41:45.551Z,1.80
2023-01-29T09:44:39.839Z,2.10
2023-01-29T09:47:14.679Z,2.10
2023-01-29T09:50:07.147Z,2.30
2023-01-29T09:52:45.425Z,2.10
2023-01-29T09:55:27.852Z,2.10
2023-01-29T09:58:13.362Z,2.10
2023-01-29T10:01:09.892Z,3.40
2023-01-29T10:04:31.748Z,2.20
2023-01-29T10:07:51.118Z,2.20
2023-01-29T10:10:58.390Z,2.20
2023-01-29T10:14:01.205Z,1.70
2023-01-29T10:19:16.507Z,2.40
2023-01-29T10:24:32.924Z,2.60
2023-01-29T10:27:02.355Z,2.60
2023-01-29T10:29:32.732Z,2.60
2023-01-29T10:32:05.921Z,2.60
2023-01-29T10:37:21.557Z,2.50
2023-01-29T10:42:37.200Z,2.70
2023-01-29T10:45:10.958Z,2.70
2023-01-29T10:50:46.269Z,2.90
2023-01-29T10:53:54.755Z,3.30
2023-01-29T10:56:56.360Z,2.60
2023-01-29T10:59:59.089Z,3.00
2023-01-29T11:10:09.445Z,2.90
2023-01-29T11:12:38.925Z,3.00
2023-01-29T11:15:32.234Z,3.00
2023-01-29T11:18:15.967Z,3.00
2023-01-29T11:20:47.010Z,3.00
2023-01-29T11:23:31.591Z,3.50
2023-01-29T11:26:01.790Z,3.10
2023-01-29T11:28:40.808Z,3.00
2023-01-29T11:31:27.131Z,2.70
2023-01-29T11:34:07.258Z,3.10
2023-01-29T11:36:40.762Z,3.40
2023-01-29T11:39:22.739Z,3.20
2023-01-29T11:42:05.397Z,3.20
2023-01-29T11:44:44.577Z,3.30
2023-01-29T11:47:21.528Z,3.70
2023-01-29T11:49:59.062Z,3.30
2023-01-29T11:52:42.288Z,3.30
2023-01-29T11:55:24.057Z,3.60
2023-01-29T11:58:09.041Z,3.40
2023-01-29T12:00:39.032Z,3.40
2023-01-29T12:06:08.199Z,2.90
2023-01-29T12:08:41.230Z,3.50
2023-01-29T12:11:31.155Z,3.50
2023-01-29T12:14:06.519Z,3.50
2023-01-29T12:17:05.226Z,3.30
2023-01-29T12:19:43.966Z,3.00
2023-01-29T12:22:17.821Z,3.50
2023-01-29T12:25:03.536Z,3.40
2023-01-29T12:27:47.987Z,3.40
2023-01-29T12:30:22.550Z,3.40
2023-01-29T12:33:28.120Z,3.40
2023-01-29T12:36:16.862Z,3.40
2023-01-29T12:38:46.666Z,3.60
2023-01-29T12:41:46.751Z,3.60
2023-01-29T12:44:26.473Z,3.60
2023-01-29T12:47:00.183Z,3.60
2023-01-29T12:49:34.231Z,3.60
2023-01-29T12:52:08.434Z,3.60
2023-01-29T12:55:01.189Z,3.50
2023-01-29T12:57:57.653Z,3.60
2023-01-29T13:00:28.159Z,3.60
2023-01-29T13:03:17.877Z,3.70
2023-01-29T13:05:52.514Z,3.70
2023-01-29T13:08:28.301Z,3.70
2023-01-29T13:11:00.914Z,3.80
2023-01-29T13:13:54.065Z,3.80
2023-01-29T13:16:28.115Z,3.70
2023-01-29T13:19:07.970Z,3.70
2023-01-29T13:21:41.016Z,3.70
2023-01-29T13:24:13.844Z,3.80
2023-01-29T13:29:30.749Z,4.10
2023-01-29T13:32:02.302Z,3.70
2023-01-29T13:34:48.560Z,3.80
2023-01-29T13:37:47.739Z,3.80
2023-01-29T13:40:29.047Z,3.80
2023-01-29T13:43:00.333Z,3.80
2023-01-29T13:45:45.522Z,3.90
2023-01-29T13:48:34.558Z,4.30
2023-01-29T13:51:05.370Z,3.80
2023-01-29T13:53:39.719Z,3.80
2023-01-29T13:56:31.837Z,3.80
2023-01-29T13:59:02.273Z,3.80
2023-01-29T14:01:48.773Z,3.80
2023-01-29T14:04:37.195Z,3.80
2023-01-29T14:07:50.972Z,3.90
2023-01-29T14:10:22.978Z,3.80
2023-01-29T14:13:18.115Z,3.80
2023-01-29T14:16:07.703Z,3.70
2023-01-29T14:18:38.188Z,3.70
2023-01-29T14:21:29.839Z,3.70
2023-01-29T14:24:20.995Z,3.70
2023-01-29T14:26:56.087Z,3.60
2023-01-29T14:29:35.429Z,3.40
2023-01-29T14:32:27.470Z,3.30
2023-01-29T14:35:17.932Z,3.50
2023-01-29T14:37:51.474Z,3.50
2023-01-29T14:43:20.285Z,3.30
2023-01-29T14:45:50.380Z,3.50
2023-01-29T14:48:48.554Z,3.30
2023-01-29T14:51:19.072Z,3.50
2023-01-29T14:56:54.877Z,3.50
2023-01-29T14:59:52.756Z,3.60
2023-01-29T15:02:27.665Z,3.40
2023-01-29T15:05:00.259Z,3.40
2023-01-29T15:07:38.624Z,3.40
2023-01-29T15:10:23.617Z,3.40
2023-01-29T15:13:14.436Z,3.40
2023-01-29T15:15:53.336Z,3.30
2023-01-29T15:18:40.019Z,3.30
2023-01-29T15:21:20.640Z,3.40
2023-01-29T15:23:49.672Z,3.30
2023-01-29T15:26:27.165Z,3.40
2023-01-29T15:29:04.926Z,3.10
2023-01-29T15:31:34.148Z,3.20
2023-01-29T15:34:07.795Z,3.30
2023-01-29T15:36:39.877Z,3.40
2023-01-29T15:39:10.873Z,3.30
2023-01-29T15:44:24.871Z,3.30
2023-01-29T15:46:57.957Z,3.30
2023-01-29T15:49:37.668Z,3.10
2023-01-29T15:52:33.077Z,3.70
2023-01-29T15:55:08.924Z,3.20
2023-01-29T15:57:43.843Z,3.20
2023-01-29T16:00:27.719Z,3.20
2023-01-29T16:02:58.144Z,3.30
2023-01-29T16:05:32.998Z,3.20
2023-01-29T16:08:02.442Z,3.20
2023-01-29T16:10:33.975Z,3.20
2023-01-29T16:18:23.263Z,3.10
2023-01-29T16:20:57.299Z,2.10
2023-01-29T16:23:42.706Z,3.10
2023-01-29T16:26:19.188Z,3.10
2023-01-29T16:28:48.712Z,3.10
2023-01-29T16:31:33.227Z,3.10
2023-01-29T16:34:21.360Z,3.10
2023-01-29T16:39:35.937Z,3.40
2023-01-29T16:42:17.247Z,3.30
2023-01-29T16:45:13.932Z,3.40
2023-01-29T16:50:53.881Z,3.10
2023-01-29T16:53:27.557Z,3.30
2023-01-29T16:58:30.368Z,3.20
2023-01-29T17:01:09.673Z,3.10
2023-01-29T17:03:40.661Z,3.10
2023-01-29T17:06:23.143Z,3.00
2023-01-29T17:08:53.219Z,3.10
2023-01-29T17:11:41.760Z,3.20
2023-01-29T17:14:11.340Z,3.20
2023-01-29T17:17:05.194Z,3.50
2023-01-29T17:27:03.693Z,3.20
2023-01-29T17:29:33.256Z,3.10
2023-01-29T17:41:59.516Z,3.20
2023-01-29T17:49:32.449Z,3.10
2023-01-29T17:52:01.478Z,3.10
2023-01-29T17:59:33.677Z,3.10
2023-01-29T18:19:28.340Z,3.00
2023-01-29T19:16:57.202Z,3.40
2023-01-29T19:21:55.635Z,3.10
2023-01-29T20:09:05.741Z,2.40
2023-01-29T20:24:14.960Z,2.70
2023-01-29T20:56:43.648Z,2.60
2023-01-29T21:09:10.037Z,2.60
2023-01-29T22:51:14.256Z,2.30
2023-01-29T22:53:54.284Z,1.60
2023-01-29T22:56:26.894Z,2.10
2023-01-29T22:58:57.878Z,2.10
2023-01-29T23:01:29.875Z,2.10
2023-01-29T23:13:55.802Z,2.10
2023-01-29T23:16:28.425Z,2.20
2023-01-29T23:21:27.794Z,2.20
2023-01-29T23:51:50.245Z,2.00
2023-01-29T23:54:19.660Z,1.90
2023-01-29T23:59:17.531Z,1.80
